Time;durP1;ratioP1;P1;durP2;ratioP2;P2;SDS_P1;SDS_P2;PMS_P1;PMS_P2;Temp;Humidity;BMP_temperature;BMP_pressure;BME280_temperature;BME280_humidity;BME280_pressure;Samples;Min_cycle;Max_cycle;Signal;HPM_P1;HPM_P2
2021/06/29 00:00:29;;;;;;;6.55;5.15;;;23.40;69.50;;;;;;5034519;28;20021;-42
2021/06/29 00:03:02;;;;;;;5.78;5.20;;;23.40;69.50;;;;;;5033079;28;20034;-42
2021/06/29 00:05:32;;;;;;;6.95;4.85;;;23.40;69.60;;;;;;5034323;28;20041;-44
2021/06/29 00:07:59;;;;;;;5.80;5.18;;;23.40;69.60;;;;;;5034721;28;20412;-43
2021/06/29 00:10:25;;;;;;;5.50;5.00;;;23.30;70.10;;;;;;5034521;28;20071;-42
2021/06/29 00:12:54;;;;;;;5.40;4.85;;;23.30;69.50;;;;;;5034583;28;20365;-42
2021/06/29 00:15:22;;;;;;;5.07;4.57;;;23.40;69.60;;;;;;5034517;28;20376;-42
2021/06/29 00:17:48;;;;;;;5.18;4.78;;;23.40;69.70;;;;;;5034354;28;20022;-42
2021/06/29 00:20:15;;;;;;;5.28;4.78;;;23.40;69.90;;;;;;5034412;28;20021;-41
2021/06/29 00:22:41;;;;;;;5.53;4.78;;;23.40;69.80;;;;;;5033103;28;20037;-42
2021/06/29 00:25:07;;;;;;;5.68;5.10;;;23.40;69.80;;;;;;5034321;28;20029;-41
2021/06/29 00:27:33;;;;;;;5.13;4.63;;;23.40;69.80;;;;;;5034172;28;20365;-42
2021/06/29 00:29:59;;;;;;;4.97;4.57;;;23.40;69.80;;;;;;5034143;28;20025;-41
2021/06/29 00:32:25;;;;;;;5.75;5.22;;;23.60;69.90;;;;;;5034175;28;20025;-42
2021/06/29 00:34:50;;;;;;;5.00;4.57;;;23.30;69.60;;;;;;5034017;28;20461;-41
2021/06/29 00:37:16;;;;;;;6.90;5.07;;;23.40;69.80;;;;;;5034082;28;20021;-42
2021/06/29 00:39:41;;;;;;;6.07;5.25;;;23.40;69.70;;;;;;5033662;28;20021;-43
2021/06/29 00:42:07;;;;;;;5.47;4.97;;;23.30;69.60;;;;;;5033525;28;20088;-42
2021/06/29 00:44:33;;;;;;;7.30;5.28;;;23.40;69.60;;;;;;5033910;28;20022;-41
2021/06/29 00:46:59;;;;;;;5.32;4.82;;;23.40;69.70;;;;;;5033739;28;20036;-41
2021/06/29 00:49:25;;;;;;;5.47;4.97;;;23.30;69.70;;;;;;5033848;28;20425;-42
2021/06/29 00:51:51;;;;;;;6.45;4.93;;;23.30;69.70;;;;;;5033964;28;20022;-41
2021/06/29 00:54:17;;;;;;;5.70;5.20;;;23.30;69.50;;;;;;5033297;28;20060;-41
2021/06/29 00:56:46;;;;;;;4.60;4.22;;;23.30;69.50;;;;;;5033436;28;20033;-41
2021/06/29 00:59:12;;;;;;;5.40;4.68;;;23.40;69.70;;;;;;5033144;28;20021;-41
2021/06/29 01:01:38;;;;;;;5.18;4.68;;;23.30;69.80;;;;;;5033378;28;20024;-41
2021/06/29 01:04:06;;;;;;;5.32;4.93;;;23.30;69.80;;;;;;5033127;28;20045;-41
2021/06/29 01:06:32;;;;;;;5.15;4.63;;;23.30;69.80;;;;;;5033244;28;20045;-42
2021/06/29 01:08:58;;;;;;;5.60;5.10;;;23.10;69.60;;;;;;5033431;28;20026;-41
2021/06/29 01:11:23;;;;;;;5.05;4.57;;;23.30;69.60;;;;;;5033027;28;20121;-42
2021/06/29 01:13:49;;;;;;;5.68;4.88;;;23.40;69.80;;;;;;5033280;28;20032;-41
2021/06/29 01:16:15;;;;;;;5.30;4.88;;;23.30;69.60;;;;;;5033288;28;20479;-42
2021/06/29 01:18:43;;;;;;;4.43;4.10;;;23.30;69.70;;;;;;5033201;28;20120;-41
2021/06/29 01:21:14;;;;;;;4.72;4.32;;;23.30;69.70;;;;;;5032984;28;20026;-41
2021/06/29 01:23:41;;;;;;;5.65;4.95;;;23.10;69.60;;;;;;5033094;28;20041;-41
2021/06/29 01:26:21;;;;;;;6.18;4.38;;;23.30;69.50;;;;;;5033090;28;20022;-41
2021/06/29 01:31:20;;;;;;;5.63;5.13;;;23.30;69.50;;;;;;5033104;28;20036;-47
2021/06/29 01:33:46;;;;;;;4.97;4.57;;;23.30;69.50;;;;;;5032698;28;20022;-42
2021/06/29 01:36:19;;;;;;;5.35;4.82;;;23.30;69.50;;;;;;5032992;28;20387;-41
2021/06/29 01:38:47;;;;;;;5.65;4.85;;;23.30;69.50;;;;;;5032784;28;20376;-42
2021/06/29 01:41:19;;;;;;;6.85;5.28;;;23.30;69.60;;;;;;5032619;28;20476;-42
2021/06/29 01:43:52;;;;;;;6.53;4.70;;;23.30;69.50;;;;;;5032808;28;20404;-41
2021/06/29 01:46:19;;;;;;;6.63;5.10;;;23.20;69.40;;;;;;5032634;28;20032;-42
2021/06/29 01:48:53;;;;;;;5.28;4.75;;;23.40;69.70;;;;;;5032838;28;20083;-42
2021/06/29 01:51:20;;;;;;;5.00;4.50;;;23.20;69.60;;;;;;5032869;28;20053;-42
2021/06/29 01:53:48;;;;;;;4.32;4.00;;;23.20;69.60;;;;;;5032804;28;20045;-42
2021/06/29 01:56:14;;;;;;;4.95;4.47;;;23.30;69.60;;;;;;5032536;28;20022;-42
2021/06/29 01:58:49;;;;;;;5.55;5.05;;;23.20;83.60;;;;;;5032718;28;20024;-42
2021/06/29 02:01:15;;;;;;;5.03;4.63;;;23.20;69.70;;;;;;5031325;28;20028;-42
2021/06/29 02:03:40;;;;;;;5.07;4.65;;;23.30;69.70;;;;;;5032250;28;20033;-42
2021/06/29 02:06:06;;;;;;;5.50;4.90;;;23.20;69.60;;;;;;5032561;28;20025;-42
2021/06/29 02:08:32;;;;;;;4.95;4.43;;;23.20;69.60;;;;;;5032601;28;20053;-42
2021/06/29 02:10:57;;;;;;;6.20;4.60;;;23.20;69.60;;;;;;5032377;28;20373;-42
2021/06/29 02:13:23;;;;;;;5.53;4.45;;;23.20;69.50;;;;;;5032726;28;20025;-41
2021/06/29 02:15:49;;;;;;;6.40;5.03;;;23.20;69.60;;;;;;5032647;28;20470;-42
2021/06/29 02:18:14;;;;;;;5.15;4.65;;;23.20;69.70;;;;;;5032374;28;20583;-42
2021/06/29 02:20:40;;;;;;;5.15;4.75;;;23.20;69.60;;;;;;5032581;28;20067;-41
2021/06/29 02:23:06;;;;;;;5.78;5.28;;;23.20;69.60;;;;;;5030994;28;20132;-42
2021/06/29 02:25:31;;;;;;;4.53;4.13;;;23.10;69.40;;;;;;5032374;28;20026;-42
2021/06/29 02:27:57;;;;;;;5.15;4.65;;;23.20;69.70;;;;;;5032600;28;20497;-42
2021/06/29 02:30:23;;;;;;;5.15;4.32;;;23.20;69.60;;;;;;5032228;28;20092;-42
2021/06/29 02:32:49;;;;;;;4.93;4.43;;;23.20;69.70;;;;;;5032356;28;20491;-41
2021/06/29 02:35:15;;;;;;;4.85;4.38;;;23.20;69.70;;;;;;5032518;28;20021;-42
2021/06/29 02:37:41;;;;;;;5.53;5.03;;;23.20;69.80;;;;;;5032196;28;20025;-42
2021/06/29 02:40:08;;;;;;;5.43;4.55;;;23.20;69.60;;;;;;5033001;28;20108;-41
2021/06/29 02:42:35;;;;;;;5.32;4.25;;;23.10;69.60;;;;;;5036034;28;20033;-42
2021/06/29 02:45:06;;;;;;;4.63;4.20;;;23.20;69.70;;;;;;5036290;28;20024;-42
2021/06/29 02:47:36;;;;;;;5.35;4.85;;;23.10;69.50;;;;;;5036146;28;20380;-41
2021/06/29 02:50:05;;;;;;;5.80;4.70;;;23.10;69.70;;;;;;5035605;28;20113;-41
2021/06/29 02:52:32;;;;;;;5.22;4.72;;;23.10;69.70;;;;;;5035567;28;20028;-42
2021/06/29 02:54:59;;;;;;;6.05;4.38;;;23.10;69.70;;;;;;5035717;28;20025;-42
2021/06/29 02:57:24;;;;;;;5.53;4.82;;;23.10;69.60;;;;;;5035840;28;20026;-42
2021/06/29 02:59:50;;;;;;;5.93;5.32;;;23.10;69.60;;;;;;5034117;28;20376;-42
2021/06/29 03:02:17;;;;;;;5.82;4.85;;;23.10;69.70;;;;;;5035607;28;20467;-41
2021/06/29 03:04:43;;;;;;;5.75;4.38;;;23.10;69.60;;;;;;5035248;28;20538;-41
2021/06/29 03:07:08;;;;;;;5.25;4.72;;;23.10;69.50;;;;;;5035692;28;20228;-41
2021/06/29 03:09:34;;;;;;;5.00;4.25;;;23.10;69.40;;;;;;5035585;28;20022;-42
2021/06/29 03:11:59;;;;;;;6.65;4.05;;;23.10;69.50;;;;;;5035223;28;20068;-42
2021/06/29 03:14:25;;;;;;;4.72;4.32;;;23.20;69.60;;;;;;5035574;28;20194;-42
2021/06/29 03:16:52;;;;;;;5.95;4.60;;;23.10;69.50;;;;;;5035150;28;20022;-41
2021/06/29 03:19:18;;;;;;;5.53;4.97;;;23.30;69.70;;;;;;5035520;28;20027;-43
2021/06/29 03:21:44;;;;;;;4.55;4.15;;;23.10;69.60;;;;;;5035078;28;20013;-42
2021/06/29 03:24:10;;;;;;;4.95;4.45;;;23.10;69.40;;;;;;5034958;28;20044;-44
2021/06/29 03:26:35;;;;;;;5.32;4.82;;;23.10;69.40;;;;;;5035352;28;20108;-42
2021/06/29 03:29:01;;;;;;;4.38;4.00;;;23.10;69.40;;;;;;5035015;28;20408;-43
2021/06/29 03:31:27;;;;;;;6.32;5.70;;;23.10;69.40;;;;;;5035269;28;20021;-42
2021/06/29 03:33:52;;;;;;;5.22;4.75;;;23.10;69.60;;;;;;5035199;28;20018;-42
2021/06/29 03:36:18;;;;;;;4.43;4.03;;;23.10;69.60;;;;;;5034824;28;20055;-42
2021/06/29 03:38:44;;;;;;;6.28;4.85;;;23.10;69.60;;;;;;5035070;28;20064;-42
2021/06/29 03:41:09;;;;;;;4.65;4.25;;;23.10;69.50;;;;;;5034801;28;20492;-42
2021/06/29 03:43:37;;;;;;;5.25;4.30;;;23.00;69.40;;;;;;5034673;28;20033;-41
2021/06/29 03:46:04;;;;;;;5.13;4.30;;;23.10;69.40;;;;;;5034963;28;20022;-42
2021/06/29 03:48:30;;;;;;;6.72;4.95;;;23.10;69.30;;;;;;5034591;28;20017;-42
2021/06/29 03:50:55;;;;;;;4.88;4.38;;;23.10;69.40;;;;;;5034414;28;20101;-42
2021/06/29 03:53:21;;;;;;;6.93;4.10;;;23.10;69.40;;;;;;5034482;28;20021;-42
2021/06/29 03:55:47;;;;;;;5.57;4.47;;;23.10;69.50;;;;;;5034411;28;20033;-42
2021/06/29 03:58:12;;;;;;;4.22;3.88;;;23.10;69.40;;;;;;5034656;28;20022;-42
2021/06/29 04:00:38;;;;;;;4.65;4.22;;;23.10;69.40;;;;;;5034247;28;20033;-42
2021/06/29 04:03:03;;;;;;;5.07;4.05;;;23.00;69.30;;;;;;5034529;28;20123;-42
2021/06/29 04:05:29;;;;;;;5.47;4.35;;;23.00;69.30;;;;;;5034093;28;20080;-42
2021/06/29 04:07:55;;;;;;;6.07;4.70;;;23.10;69.40;;;;;;5034422;28;20021;-42
2021/06/29 04:10:20;;;;;;;4.05;3.75;;;23.10;69.40;;;;;;5034445;28;20014;-42
2021/06/29 04:12:46;;;;;;;4.97;4.47;;;23.00;69.30;;;;;;5034293;28;20041;-42
2021/06/29 04:15:12;;;;;;;4.43;4.03;;;23.00;69.20;;;;;;5034308;28;20530;-42
2021/06/29 04:17:38;;;;;;;4.13;3.72;;;23.00;69.30;;;;;;5032807;28;20024;-41
2021/06/29 04:20:06;;;;;;;5.18;4.68;;;23.00;69.20;;;;;;5034183;28;20017;-42
2021/06/29 04:22:31;;;;;;;6.43;4.93;;;23.00;69.20;;;;;;5033860;28;20029;-42
2021/06/29 04:24:57;;;;;;;4.75;4.10;;;23.00;69.20;;;;;;5033863;28;20515;-42
2021/06/29 04:27:23;;;;;;;5.00;4.28;;;23.10;69.30;;;;;;5034099;28;20078;-42
2021/06/29 04:29:50;;;;;;;4.18;3.83;;;23.20;69.30;;;;;;5034023;28;20030;-41
2021/06/29 04:32:16;;;;;;;4.75;4.32;;;23.10;69.20;;;;;;5033920;28;20017;-42
2021/06/29 04:34:42;;;;;;;5.90;4.75;;;23.00;69.10;;;;;;5033991;28;20025;-42
2021/06/29 04:37:07;;;;;;;4.50;4.10;;;23.00;69.10;;;;;;5032659;28;20025;-42
2021/06/29 04:39:33;;;;;;;4.32;4.03;;;23.00;69.10;;;;;;5033901;28;20029;-42
2021/06/29 04:41:59;;;;;;;4.68;4.22;;;23.00;69.10;;;;;;5033390;28;20057;-42
2021/06/29 04:44:25;;;;;;;4.68;4.18;;;23.00;69.10;;;;;;5033718;28;20103;-41
2021/06/29 04:46:51;;;;;;;4.10;3.80;;;23.00;69.10;;;;;;5033693;28;20101;-42
2021/06/29 04:49:19;;;;;;;4.65;4.22;;;23.00;69.80;;;;;;5033742;28;20459;-41
2021/06/29 04:51:44;;;;;;;4.82;4.43;;;23.00;69.10;;;;;;5033374;28;20465;-43
2021/06/29 04:54:10;;;;;;;4.38;3.80;;;23.00;69.80;;;;;;5033601;28;20033;-42
2021/06/29 04:56:36;;;;;;;4.55;3.90;;;23.00;69.10;;;;;;5033295;28;20030;-42
2021/06/29 04:59:02;;;;;;;4.32;3.70;;;23.00;69.10;;;;;;5033187;28;20056;-41
2021/06/29 05:01:29;;;;;;;5.57;4.75;;;23.00;69.10;;;;;;5033278;28;20048;-42
2021/06/29 05:03:55;;;;;;;4.75;4.25;;;23.00;69.10;;;;;;5032338;28;20049;-42
2021/06/29 05:06:21;;;;;;;5.45;4.55;;;23.00;69.20;;;;;;5033442;28;20032;-42
2021/06/29 05:08:47;;;;;;;4.57;4.18;;;23.00;69.20;;;;;;5033164;28;20064;-41
2021/06/29 05:11:13;;;;;;;4.35;3.95;;;23.00;69.20;;;;;;5033282;28;20041;-42
2021/06/29 05:13:39;;;;;;;5.13;4.63;;;23.00;69.10;;;;;;5031785;28;20403;-42
2021/06/29 05:16:05;;;;;;;4.32;3.92;;;23.00;69.10;;;;;;5033279;28;20086;-42
2021/06/29 05:18:30;;;;;;;6.22;4.90;;;23.00;69.20;;;;;;5033217;28;20442;-41
2021/06/29 05:20:56;;;;;;;5.43;4.97;;;23.00;69.10;;;;;;5033135;28;20076;-41
2021/06/29 05:23:22;;;;;;;5.10;4.53;;;23.00;69.20;;;;;;5032841;28;20469;-41
2021/06/29 05:25:48;;;;;;;6.18;4.65;;;23.00;69.30;;;;;;5033081;28;20017;-41
2021/06/29 05:28:13;;;;;;;7.50;5.45;;;23.00;69.30;;;;;;5033173;28;20502;-42
2021/06/29 05:30:39;;;;;;;6.03;5.00;;;23.00;69.20;;;;;;5033139;28;20567;-41
2021/06/29 05:33:05;;;;;;;6.95;4.80;;;23.00;69.20;;;;;;5032657;28;20025;-41
2021/06/29 05:35:30;;;;;;;5.30;4.45;;;23.00;69.10;;;;;;5033156;28;20559;-41
2021/06/29 05:37:56;;;;;;;4.00;3.65;;;22.90;69.10;;;;;;5032718;28;20048;-42
2021/06/29 05:40:22;;;;;;;4.78;4.28;;;23.00;69.10;;;;;;5032814;28;20080;-41
2021/06/29 05:42:47;;;;;;;5.95;5.15;;;23.00;69.10;;;;;;5032822;28;20041;-41
2021/06/29 05:45:15;;;;;;;5.57;4.95;;;23.00;69.10;;;;;;5032993;28;20028;-41
2021/06/29 05:47:41;;;;;;;5.47;4.97;;;22.90;69.00;;;;;;5032810;28;20025;-42
2021/06/29 05:50:11;;;;;;;6.60;4.70;;;22.90;69.10;;;;;;5032467;28;20108;-41
2021/06/29 05:52:37;;;;;;;5.20;4.70;;;22.90;69.20;;;;;;5032793;28;20045;-41
2021/06/29 05:55:04;;;;;;;6.85;4.85;;;23.00;69.20;;;;;;5032874;28;20040;-41
2021/06/29 05:57:31;;;;;;;9.43;5.82;;;22.90;69.30;;;;;;5032597;28;20067;-42
2021/06/29 05:59:56;;;;;;;6.85;5.10;;;22.90;69.20;;;;;;5032740;28;20391;-41
2021/06/29 06:02:22;;;;;;;9.18;6.53;;;22.90;69.20;;;;;;5032521;28;20117;-41
2021/06/29 06:04:48;;;;;;;8.63;7.13;;;23.10;69.40;;;;;;5032268;28;20058;-41
2021/06/29 06:07:14;;;;;;;9.60;7.55;;;22.90;69.20;;;;;;5032757;28;20101;-42
2021/06/29 06:09:40;;;;;;;6.78;5.85;;;22.90;69.20;;;;;;5032639;28;20105;-41
2021/06/29 06:12:06;;;;;;;8.48;6.90;;;22.90;69.40;;;;;;5032104;28;20452;-41
2021/06/29 06:14:31;;;;;;;8.13;6.78;;;22.90;69.30;;;;;;5033894;28;20021;-42
2021/06/29 06:16:57;;;;;;;8.77;6.10;;;22.90;69.20;;;;;;5036421;28;20488;-43
2021/06/29 06:19:23;;;;;;;6.72;5.90;;;22.90;69.70;;;;;;5036521;28;20468;-43
2021/06/29 06:21:49;;;;;;;7.28;5.97;;;23.00;69.40;;;;;;5036041;28;20029;-44
2021/06/29 06:24:15;;;;;;;9.73;7.25;;;23.00;69.40;;;;;;5035845;28;20622;-43
2021/06/29 06:26:41;;;;;;;9.20;6.30;;;23.00;69.20;;;;;;5036189;28;20063;-44
2021/06/29 06:29:06;;;;;;;7.30;6.10;;;22.90;69.20;;;;;;5036283;28;20151;-43
2021/06/29 06:31:32;;;;;;;9.23;6.72;;;23.00;69.40;;;;;;5036654;28;20080;-44
2021/06/29 06:33:58;;;;;;;9.73;7.63;;;23.00;69.50;;;;;;5036132;28;20427;-43
2021/06/29 06:36:23;;;;;;;9.45;7.57;;;23.00;69.50;;;;;;5036266;28;20551;-44
2021/06/29 06:38:49;;;;;;;10.68;7.80;;;23.00;69.70;;;;;;5035935;28;20025;-43
2021/06/29 06:41:14;;;;;;;9.20;7.10;;;23.10;69.80;;;;;;5035987;28;20034;-44
2021/06/29 06:43:44;;;;;;;11.10;7.40;;;23.10;69.80;;;;;;5036158;28;20041;-43
2021/06/29 06:46:10;;;;;;;14.27;7.45;;;23.00;69.70;;;;;;5036116;28;20075;-45
2021/06/29 06:48:37;;;;;;;10.32;7.68;;;23.00;69.60;;;;;;5035830;28;20427;-44
2021/06/29 06:51:06;;;;;;;10.35;6.90;;;23.00;69.60;;;;;;5036051;28;20018;-44
2021/06/29 06:53:32;;;;;;;11.82;7.43;;;23.00;69.50;;;;;;5035928;28;20407;-44
2021/06/29 06:55:58;;;;;;;10.55;7.32;;;23.00;69.50;;;;;;5035563;28;20101;-44
2021/06/29 06:58:25;;;;;;;11.80;7.15;;;23.00;69.50;;;;;;5035841;28;20053;-44
2021/06/29 07:00:51;;;;;;;11.63;7.70;;;23.00;69.50;;;;;;5035370;28;20468;-44
2021/06/29 07:03:17;;;;;;;10.57;7.45;;;23.00;69.30;;;;;;5035708;28;20170;-44
2021/06/29 07:05:43;;;;;;;10.25;8.02;;;23.00;69.20;;;;;;5035224;28;20116;-43
2021/06/29 07:08:08;;;;;;;9.07;7.43;;;23.00;69.20;;;;;;5035440;28;20029;-44
2021/06/29 07:10:34;;;;;;;9.13;7.30;;;23.00;69.20;;;;;;5035578;28;20026;-44
2021/06/29 07:12:59;;;;;;;9.35;7.07;;;23.00;69.20;;;;;;5035168;28;20500;-44
2021/06/29 07:15:28;;;;;;;9.85;7.53;;;23.00;69.20;;;;;;5035520;28;20105;-44
2021/06/29 07:17:53;;;;;;;9.70;6.60;;;23.00;69.20;;;;;;5035405;28;20029;-44
2021/06/29 07:20:19;;;;;;;8.93;7.32;;;23.10;69.20;;;;;;5035475;28;20495;-43
2021/06/29 07:22:45;;;;;;;10.77;7.22;;;23.00;69.10;;;;;;5035289;28;20060;-43
2021/06/29 07:25:11;;;;;;;7.95;7.15;;;23.00;69.00;;;;;;5035508;28;20502;-44
2021/06/29 07:27:36;;;;;;;8.23;7.15;;;23.00;69.00;;;;;;5034351;28;20477;-44
2021/06/29 07:30:06;;;;;;;9.00;6.97;;;23.00;69.00;;;;;;5035023;28;20025;-44
2021/06/29 07:32:32;;;;;;;7.00;6.30;;;23.10;68.90;;;;;;5035264;28;20025;-44
2021/06/29 07:34:58;;;;;;;8.27;7.03;;;23.10;68.90;;;;;;5035184;28;20025;-44
2021/06/29 07:37:23;;;;;;;7.68;6.80;;;23.10;68.90;;;;;;5035116;28;20022;-44
2021/06/29 07:39:49;;;;;;;8.32;7.28;;;23.10;68.80;;;;;;5034878;28;20192;-44
2021/06/29 07:42:15;;;;;;;6.85;6.25;;;23.10;68.80;;;;;;5034654;28;20020;-44
2021/06/29 07:44:40;;;;;;;7.78;6.50;;;23.10;68.90;;;;;;5034967;28;20434;-44
2021/06/29 07:47:06;;;;;;;8.20;6.53;;;23.10;68.90;;;;;;5034933;28;20030;-43
2021/06/29 07:49:32;;;;;;;7.65;6.65;;;23.10;68.90;;;;;;5034779;28;20053;-44
2021/06/29 07:51:57;;;;;;;7.10;6.35;;;23.10;68.80;;;;;;5034852;28;20021;-45
2021/06/29 07:54:23;;;;;;;7.88;7.07;;;23.10;68.60;;;;;;5034658;28;20041;-44
2021/06/29 07:56:49;;;;;;;8.38;7.47;;;23.10;68.50;;;;;;5034441;28;20108;-44
2021/06/29 07:59:14;;;;;;;6.95;6.10;;;23.20;68.60;;;;;;5034318;28;20033;-44
2021/06/29 08:01:40;;;;;;;8.60;6.93;;;23.10;68.60;;;;;;5034597;28;20025;-44
2021/06/29 08:04:06;;;;;;;7.28;6.53;;;23.20;68.60;;;;;;5033822;28;20037;-44
2021/06/29 08:06:31;;;;;;;6.95;6.25;;;23.10;68.60;;;;;;5034588;28;20021;-44
2021/06/29 08:08:57;;;;;;;8.07;7.20;;;23.10;68.70;;;;;;5034169;28;20112;-44
2021/06/29 08:11:22;;;;;;;7.93;6.68;;;23.10;68.60;;;;;;5033299;28;20028;-46
2021/06/29 08:13:48;;;;;;;7.55;6.63;;;23.10;68.60;;;;;;5033278;28;20109;-44
2021/06/29 08:16:14;;;;;;;7.90;6.70;;;23.10;68.50;;;;;;5034333;28;20021;-43
2021/06/29 08:18:40;;;;;;;8.65;7.47;;;23.10;68.50;;;;;;5034427;28;20034;-43
2021/06/29 08:21:07;;;;;;;7.38;6.57;;;23.10;68.50;;;;;;5033940;28;20032;-43
2021/06/29 08:23:33;;;;;;;6.80;6.10;;;23.10;68.50;;;;;;5034264;28;20061;-43
2021/06/29 08:25:59;;;;;;;8.02;6.63;;;23.20;68.60;;;;;;5034242;28;20025;-43
2021/06/29 08:28:26;;;;;;;8.75;6.63;;;23.10;68.60;;;;;;5034315;28;20021;-44
2021/06/29 08:30:52;;;;;;;7.72;6.40;;;23.10;68.50;;;;;;5034245;28;20376;-43
2021/06/29 08:33:22;;;;;;;6.80;6.20;;;23.20;68.50;;;;;;5034222;28;20033;-44
2021/06/29 08:35:51;;;;;;;8.18;6.88;;;23.10;68.40;;;;;;5033935;28;20021;-44
2021/06/29 08:38:18;;;;;;;7.72;6.68;;;23.10;68.30;;;;;;5033643;28;20171;-45
2021/06/29 08:40:43;;;;;;;6.72;6.03;;;23.20;68.40;;;;;;5033940;28;20049;-45
2021/06/29 08:43:11;;;;;;;7.43;6.72;;;23.30;68.40;;;;;;5033852;28;20499;-44
2021/06/29 08:45:37;;;;;;;6.85;6.25;;;23.20;68.40;;;;;;5033558;28;20048;-44
2021/06/29 08:48:04;;;;;;;7.95;7.15;;;23.20;68.20;;;;;;5033838;28;20029;-44
2021/06/29 08:50:31;;;;;;;6.80;6.20;;;23.20;68.20;;;;;;5033495;28;20029;-44
2021/06/29 08:53:08;;;;;;;7.47;6.78;;;23.30;68.20;;;;;;5033654;28;20021;-45
2021/06/29 08:55:36;;;;;;;6.85;6.13;;;23.20;68.00;;;;;;5033861;28;20030;-45
2021/06/29 08:58:02;;;;;;;6.55;5.95;;;23.30;68.60;;;;;;5033346;28;20476;-44
2021/06/29 09:00:28;;;;;;;6.50;5.90;;;23.30;68.00;;;;;;5033728;28;20021;-44
2021/06/29 09:02:53;;;;;;;8.27;6.47;;;23.50;67.90;;;;;;5033235;28;20500;-44
2021/06/29 09:05:28;;;;;;;6.13;5.63;;;23.30;67.70;;;;;;5033212;28;20147;-45
2021/06/29 09:08:05;;;;;;;6.82;6.05;;;23.30;67.70;;;;;;5033195;28;20107;-44
2021/06/29 09:10:32;;;;;;;6.10;5.55;;;23.30;67.60;;;;;;5033144;28;20037;-44
2021/06/29 09:12:58;;;;;;;6.97;6.38;;;23.30;67.60;;;;;;5033218;28;20030;-44
2021/06/29 09:15:25;;;;;;;5.95;5.45;;;23.40;67.50;;;;;;5033284;28;20026;-43
2021/06/29 09:17:54;;;;;;;6.03;5.43;;;23.30;67.60;;;;;;5033323;28;20030;-44
2021/06/29 09:20:29;;;;;;;6.38;5.78;;;23.40;67.70;;;;;;5033266;28;20095;-42
2021/06/29 09:22:57;;;;;;;5.95;5.45;;;23.30;67.60;;;;;;5033180;28;20388;-43
2021/06/29 09:25:29;;;;;;;6.25;5.65;;;23.30;67.60;;;;;;5032940;28;20047;-42
2021/06/29 09:27:57;;;;;;;5.60;5.10;;;23.30;67.50;;;;;;5033210;28;20045;-43
2021/06/29 09:30:30;;;;;;;6.75;6.05;;;23.50;67.50;;;;;;5032837;28;20021;-42
2021/06/29 09:33:20;;;;;;;6.10;5.43;;;23.30;67.40;;;;;;5033152;28;20358;-42
2021/06/29 09:35:52;;;;;;;5.68;5.18;;;23.30;67.40;;;;;;5025397;28;20388;-42
2021/06/29 09:38:22;;;;;;;6.60;5.93;;;23.30;67.50;;;;;;5032835;28;20033;-41
2021/06/29 09:40:53;;;;;;;;;;;23.30;67.40;;;;;;5032988;28;20473;-42
2021/06/29 09:43:20;;;;;;;6.03;5.43;;;23.30;67.40;;;;;;5033053;28;20030;-45
2021/06/29 09:45:48;;;;;;;5.65;5.15;;;23.40;67.40;;;;;;5032958;28;20112;-42
2021/06/29 09:48:15;;;;;;;5.82;5.28;;;23.30;67.30;;;;;;5032808;28;20013;-42
2021/06/29 09:50:51;;;;;;;6.13;5.53;;;23.30;67.30;;;;;;5039138;28;20025;-42
2021/06/29 09:53:23;;;;;;;7.03;6.32;;;23.40;68.00;;;;;;5039199;28;20484;-43
2021/06/29 09:55:54;;;;;;;6.32;5.63;;;23.40;67.30;;;;;;5039587;28;20030;-42
2021/06/29 09:58:20;;;;;;;6.35;5.75;;;23.40;67.20;;;;;;5039411;28;20057;-43
2021/06/29 10:00:48;;;;;;;6.22;5.72;;;23.40;67.20;;;;;;5039488;28;20507;-44
2021/06/29 10:03:19;;;;;;;6.13;5.63;;;23.40;67.30;;;;;;5039084;28;20034;-45
2021/06/29 10:05:45;;;;;;;7.00;6.38;;;23.40;67.30;;;;;;5039070;28;20048;-48
2021/06/29 10:08:10;;;;;;;7.20;6.47;;;23.40;67.40;;;;;;5039469;28;20472;-43
2021/06/29 10:10:36;;;;;;;7.07;6.35;;;23.40;67.40;;;;;;5039416;28;20405;-44
2021/06/29 10:13:16;;;;;;;6.53;5.93;;;23.40;67.40;;;;;;5038110;28;20060;-43
2021/06/29 10:15:43;;;;;;;6.68;6.07;;;23.40;67.40;;;;;;5039265;28;20467;-43
2021/06/29 10:18:10;;;;;;;6.88;6.22;;;23.50;67.40;;;;;;5037672;28;20112;-43
2021/06/29 10:20:51;;;;;;;6.93;6.22;;;23.50;67.30;;;;;;5039273;28;20284;-43
2021/06/29 10:23:17;;;;;;;7.68;6.93;;;23.50;67.30;;;;;;5039069;28;20029;-43
2021/06/29 10:25:43;;;;;;;7.47;6.78;;;23.50;67.30;;;;;;5039200;28;20112;-43
2021/06/29 10:28:14;;;;;;;8.15;7.13;;;23.50;67.20;;;;;;5039098;28;20120;-43
2021/06/29 10:30:41;;;;;;;7.75;7.00;;;23.50;67.20;;;;;;5037707;28;20022;-43
2021/06/29 10:33:08;;;;;;;7.70;7.00;;;23.50;67.10;;;;;;5039064;28;20135;-43
2021/06/29 10:35:35;;;;;;;8.05;7.35;;;23.60;67.10;;;;;;5039075;28;20017;-43
2021/06/29 10:38:01;;;;;;;8.52;7.63;;;23.60;67.10;;;;;;5039101;28;20379;-43
2021/06/29 10:40:27;;;;;;;8.32;7.45;;;23.60;67.00;;;;;;5039310;28;20112;-43
2021/06/29 10:42:57;;;;;;;9.60;6.75;;;23.60;66.90;;;;;;5038634;28;20045;-43
2021/06/29 10:45:23;;;;;;;7.82;7.13;;;23.60;66.80;;;;;;5039012;28;20024;-43
2021/06/29 10:47:49;;;;;;;8.30;7.45;;;23.70;67.50;;;;;;5039002;28;20026;-43
2021/06/29 10:50:15;;;;;;;7.78;7.05;;;23.70;66.80;;;;;;5038567;28;20403;-44
2021/06/29 10:52:43;;;;;;;8.55;7.85;;;23.70;66.70;;;;;;5038980;28;20075;-43
2021/06/29 10:55:20;;;;;;;8.88;7.30;;;23.70;66.70;;;;;;5037628;28;20025;-44
2021/06/29 10:57:49;;;;;;;7.90;7.13;;;23.80;66.70;;;;;;5038452;28;20033;-44
2021/06/29 11:00:21;;;;;;;8.35;7.55;;;23.80;66.60;;;;;;5037733;28;20021;-44
2021/06/29 11:03:05;;;;;;;8.75;7.85;;;23.80;66.50;;;;;;5035047;28;20036;-45
2021/06/29 11:05:36;;;;;;;8.23;7.38;;;23.90;66.40;;;;;;5035268;28;20053;-43
2021/06/29 11:08:09;;;;;;;8.75;7.82;;;23.90;66.20;;;;;;5035509;28;20025;-43
2021/06/29 11:10:36;;;;;;;8.52;7.63;;;23.90;66.20;;;;;;5035438;28;20480;-44
2021/06/29 11:13:04;;;;;;;9.32;8.48;;;23.90;66.20;;;;;;5035517;28;20058;-44
2021/06/29 11:15:41;;;;;;;8.52;7.72;;;23.90;66.10;;;;;;5035346;28;20034;-42
2021/06/29 11:18:08;;;;;;;7.70;6.90;;;23.90;66.00;;;;;;5035267;28;20068;-43
2021/06/29 11:20:51;;;;;;;8.05;7.22;;;24.00;66.00;;;;;;5035179;28;20017;-43
2021/06/29 11:23:19;;;;;;;8.10;7.30;;;23.90;65.80;;;;;;5035037;28;20060;-43
2021/06/29 11:25:44;;;;;;;8.50;7.70;;;24.00;65.90;;;;;;5034973;28;20030;-44
2021/06/29 11:28:31;;;;;;;8.27;7.53;;;24.00;65.80;;;;;;5035207;28;20021;-44
2021/06/29 11:31:07;;;;;;;7.63;6.88;;;23.90;65.80;;;;;;5033921;28;20079;-43
2021/06/29 11:33:32;;;;;;;8.57;7.72;;;24.00;65.80;;;;;;5035291;28;20028;-43
2021/06/29 11:35:58;;;;;;;7.85;7.15;;;24.00;65.80;;;;;;5034845;28;20108;-43
2021/06/29 11:38:39;;;;;;;8.13;7.43;;;24.00;65.80;;;;;;5034796;28;20075;-44
2021/06/29 11:41:39;;;;;;;;;;;24.00;65.80;;;;;;5035340;28;20034;-43
2021/06/29 11:44:08;;;;;;;7.38;6.55;;;24.00;65.70;;;;;;4954244;29;19914;-43
2021/06/29 11:47:04;;;;;;;7.72;7.10;;;24.00;65.60;;;;;;5019474;28;20484;-43
2021/06/29 11:49:32;;;;;;;8.23;7.43;;;24.00;65.60;;;;;;5033368;28;20112;-43
2021/06/29 11:52:00;;;;;;;7.93;7.13;;;24.00;65.60;;;;;;5034863;28;20025;-43
2021/06/29 11:54:32;;;;;;;7.32;6.70;;;24.10;65.50;;;;;;5034818;28;20053;-44
2021/06/29 11:57:00;;;;;;;7.13;6.53;;;24.10;65.60;;;;;;5034602;28;20072;-43
2021/06/29 11:59:30;;;;;;;8.25;7.45;;;24.10;65.40;;;;;;5034677;28;20069;-43
2021/06/29 12:02:06;;;;;;;11.30;7.80;;;24.10;65.40;;;;;;5034654;28;20021;-43
2021/06/29 12:04:32;;;;;;;7.88;6.95;;;24.10;65.40;;;;;;5033112;28;20350;-43
2021/06/29 12:07:06;;;;;;;7.93;7.15;;;24.10;65.30;;;;;;5034609;28;20380;-44
2021/06/29 12:09:36;;;;;;;7.50;6.80;;;24.10;65.30;;;;;;5034246;28;20029;-44
2021/06/29 12:12:23;;;;;;;7.50;6.80;;;24.10;65.20;;;;;;5034289;28;20021;-44
2021/06/29 12:15:18;;;;;;;7.25;6.65;;;24.10;65.20;;;;;;5032836;28;20106;-44
2021/06/29 12:17:52;;;;;;;7.95;6.35;;;24.10;65.10;;;;;;5021352;28;20029;-44
2021/06/29 12:20:21;;;;;;;8.35;6.60;;;24.10;65.00;;;;;;5034008;28;20022;-43
2021/06/29 12:22:48;;;;;;;7.53;6.83;;;24.20;65.00;;;;;;5034446;28;20026;-44
2021/06/29 12:25:41;;;;;;;7.03;6.43;;;24.00;64.90;;;;;;5034390;28;20310;-46
2021/06/29 12:28:22;;;;;;;8.00;6.38;;;24.00;64.90;;;;;;5031698;28;20384;-44
2021/06/29 12:30:51;;;;;;;7.05;6.35;;;24.20;65.00;;;;;;5034352;28;20025;-44
2021/06/29 12:33:38;;;;;;;7.03;6.33;;;24.20;65.00;;;;;;5034170;28;20079;-44
2021/06/29 12:36:09;;;;;;;8.68;6.72;;;24.20;65.00;;;;;;5032552;28;20061;-44
2021/06/29 12:38:37;;;;;;;7.78;6.43;;;24.20;64.90;;;;;;5034174;28;20022;-44
2021/06/29 12:41:06;;;;;;;8.57;6.72;;;24.20;65.00;;;;;;5033913;28;20068;-44
2021/06/29 12:43:35;;;;;;;8.18;6.43;;;24.20;64.90;;;;;;5033916;28;20116;-44
2021/06/29 12:46:20;;;;;;;7.60;6.80;;;24.20;64.80;;;;;;5033974;28;20372;-43
2021/06/29 12:49:20;;;;;;;9.02;6.65;;;24.30;64.90;;;;;;5033895;28;20025;-44
2021/06/29 12:52:01;;;;;;;6.40;5.65;;;24.30;64.80;;;;;;5023192;28;20029;-45
2021/06/29 12:54:30;;;;;;;9.13;6.43;;;24.30;64.80;;;;;;5033873;28;20026;-44